Terminal Aerodrome Forecast
Issued by NWS Greer, SC

Home | Current Version | Previous Version | Text Only | Print | Product List | Glossary On
Versions: 1 2 3 4 5 6 7 8 9 10 11 12 13 14 15 16 17 18 19 20 21 22 23 24
000
FTUS42 KGSP 192300
TAFCLT
TAF
KCLT 192340Z 2000/2024 02010KT 5SM -RA BR FEW009 OVC040
      TEMPO 2000/2003 2SM RA BR
     FM200600 02012KT P6SM VCSH OVC050
     FM200900 04012KT P6SM BKN050
     FM202300 03009KT P6SM SCT045=

USA.gov is the U.S. government's official web portal to all federal, state and local government web resources and services.